createdAt,value
2022-09-17T00:01:08.510Z,92226.28
2022-09-17T00:02:40.187Z,92221.22
2022-09-17T00:04:11.900Z,92232.94
2022-09-17T00:05:43.473Z,92239.16
2022-09-17T00:07:15.866Z,92239.56
2022-09-17T00:08:47.512Z,92237.22
2022-09-17T00:10:19.950Z,92235.25
2022-09-17T00:11:51.476Z,92238.34
2022-09-17T00:13:23.398Z,92242.63
2022-09-17T00:14:55.131Z,92227.41
2022-09-17T00:16:27.988Z,92228.94
2022-09-17T00:17:59.597Z,92229.75
2022-09-17T00:19:31.097Z,92227.38
2022-09-17T00:21:03.810Z,92228.19
2022-09-17T00:22:35.323Z,92216.47
2022-09-17T00:24:06.967Z,92220.38
2022-09-17T00:25:39.428Z,92219.19
2022-09-17T00:27:10.965Z,92219.22
2022-09-17T00:28:45.540Z,92216.09
2022-09-17T00:30:17.061Z,92214.16
2022-09-17T00:31:48.790Z,92221.59
2022-09-17T00:33:21.276Z,92217.69
2022-09-17T00:34:53.127Z,92222.00
2022-09-17T00:36:24.675Z,92219.66
2022-09-17T00:37:56.158Z,92231.00
2022-09-17T00:39:27.634Z,92229.81
2022-09-17T00:40:59.370Z,92237.25
2022-09-17T00:42:31.179Z,92229.81
2022-09-17T00:44:23.036Z,92232.19
2022-09-17T00:45:54.537Z,92231.00
2022-09-17T00:47:26.211Z,92233.75
2022-09-17T00:48:58.419Z,92233.34
2022-09-17T00:50:31.558Z,92228.28
2022-09-17T00:52:06.825Z,92226.72
2022-09-17T00:53:40.846Z,92225.91
2022-09-17T00:55:18.441Z,92219.66
2022-09-17T00:56:50.297Z,92228.66
2022-09-17T00:58:22.247Z,92224.75
2022-09-17T00:59:53.998Z,92223.56
2022-09-17T01:01:25.607Z,92222.00
2022-09-17T01:02:57.440Z,92227.47
2022-09-17T01:04:28.915Z,92227.09
2022-09-17T01:06:05.032Z,92227.88
2022-09-17T01:07:36.565Z,92226.31
2022-09-17T01:16:49.350Z,92229.06
2022-09-17T01:18:29.446Z,92224.38
2022-09-17T01:20:13.560Z,92232.94
2022-09-17T01:22:03.198Z,92240.38
2022-09-17T01:23:34.774Z,92239.97
2022-09-17T01:25:06.894Z,92232.56
2022-09-17T01:26:55.004Z,92232.56
2022-09-17T01:28:46.958Z,92236.06
2022-09-17T01:30:28.260Z,92236.06
2022-09-17T01:32:00.231Z,92239.97
2022-09-17T01:33:34.543Z,92241.53
2022-09-17T01:35:09.156Z,92240.38
2022-09-17T01:36:59.443Z,92243.50
2022-09-17T01:38:33.040Z,92241.53
2022-09-17T01:40:04.878Z,92244.28
2022-09-17T01:41:48.171Z,92254.78
2022-09-17T01:43:36.977Z,92248.16
2022-09-17T01:45:10.178Z,92251.66
2022-09-17T01:46:49.586Z,92246.53
2022-09-17T01:48:22.150Z,92256.28
2022-09-17T01:49:55.251Z,92257.84
2022-09-17T01:51:27.769Z,92258.63
2022-09-17T01:52:59.654Z,92262.53
2022-09-17T01:54:38.081Z,92267.97
2022-09-17T01:56:13.751Z,92260.56
2022-09-17T01:57:47.883Z,92263.69
2022-09-17T01:59:23.323Z,92259.41
2022-09-17T02:00:56.591Z,92265.28
2022-09-17T02:02:31.197Z,92257.06
2022-09-17T02:04:13.789Z,92263.69
2022-09-17T02:05:53.458Z,92262.53
2022-09-17T02:07:26.186Z,92267.22
2022-09-17T02:08:58.582Z,92271.91
2022-09-17T02:10:31.449Z,92269.94
2022-09-17T02:12:04.245Z,92274.97
2022-09-17T02:13:41.055Z,92274.19
2022-09-17T02:15:18.050Z,92276.50
2022-09-17T02:16:52.913Z,92286.22
2022-09-17T02:18:26.400Z,92292.03
2022-09-17T02:19:57.968Z,92297.75
2022-09-17T02:21:35.409Z,92294.53
2022-09-17T02:23:09.009Z,92292.50
2022-09-17T02:24:49.180Z,92278.38
2022-09-17T02:26:20.908Z,92270.50
2022-09-17T02:28:03.580Z,92250.13
2022-09-17T02:29:39.365Z,92218.09
2022-09-17T02:31:12.099Z,92216.06
2022-09-17T02:32:43.646Z,92216.38
2022-09-17T02:34:15.228Z,92187.88
2022-09-17T02:35:47.460Z,92185.09
2022-09-17T02:37:22.081Z,92179.59
2022-09-17T02:38:58.787Z,92184.63
2022-09-17T02:40:31.724Z,92188.13
2022-09-17T02:42:17.710Z,92181.16
2022-09-17T02:43:56.469Z,92176.47
2022-09-17T02:45:46.894Z,92181.25
2022-09-17T02:47:18.430Z,92185.13
2022-09-17T02:49:10.316Z,92188.22
2022-09-17T02:51:02.158Z,92180.38
2022-09-17T02:52:36.917Z,92177.25
2022-09-17T02:54:28.778Z,92167.13
2022-09-17T02:56:00.247Z,92154.66
2022-09-17T02:57:38.271Z,92154.66
2022-09-17T02:59:15.822Z,92161.28
2022-09-17T03:00:47.638Z,92150.78
2022-09-17T03:02:19.308Z,92150.00
2022-09-17T03:03:51.580Z,92142.25
2022-09-17T03:05:23.133Z,92140.31
2022-09-17T03:06:54.846Z,92145.41
2022-09-17T03:08:30.099Z,92143.88
2022-09-17T03:10:01.601Z,92139.59
2022-09-17T03:11:33.970Z,92136.88
2022-09-17T03:13:05.877Z,92118.22
2022-09-17T03:14:37.480Z,92117.84
2022-09-17T03:16:09.644Z,92119.44
2022-09-17T03:17:41.368Z,92116.72
2022-09-17T03:19:13.448Z,92112.50
2022-09-17T03:20:46.578Z,92114.50
2022-09-17T03:22:18.532Z,92118.84
2022-09-17T03:23:50.082Z,92108.00
2022-09-17T03:25:21.803Z,92106.47
2022-09-17T03:26:53.364Z,92104.59
2022-09-17T03:28:26.625Z,92096.03
2022-09-17T03:29:58.851Z,92089.78
2022-09-17T03:31:30.628Z,92087.00
2022-09-17T03:33:02.145Z,92080.75
2022-09-17T03:34:33.655Z,92093.22
2022-09-17T03:36:05.341Z,92095.16
2022-09-17T03:37:37.041Z,92097.94
2022-09-17T03:39:08.863Z,92096.38
2022-09-17T03:40:40.745Z,92091.34
2022-09-17T03:42:12.678Z,92077.31
2022-09-17T03:43:44.194Z,92074.22
2022-09-17T03:45:15.825Z,92076.97
2022-09-17T03:46:47.655Z,92076.59
2022-09-17T03:48:19.441Z,92080.88
2022-09-17T03:49:52.482Z,92081.66
2022-09-17T03:51:24.619Z,92087.13
2022-09-17T03:52:56.319Z,92089.84
2022-09-17T03:54:27.898Z,92082.84
2022-09-17T03:56:00.195Z,92088.72
2022-09-17T03:57:31.711Z,92095.72
2022-09-17T03:59:03.266Z,92095.34
2022-09-17T04:00:37.191Z,92087.94
2022-09-17T04:02:09.122Z,92082.88
2022-09-17T04:03:40.783Z,92083.25
2022-09-17T04:05:12.602Z,92091.81
2022-09-17T04:06:44.130Z,92094.16
2022-09-17T04:08:15.712Z,92091.41
2022-09-17T04:09:47.218Z,92095.69
2022-09-17T04:11:18.739Z,92094.13
2022-09-17T04:12:50.283Z,92091.38
2022-09-17T04:14:21.822Z,92094.84
2022-09-17T04:15:53.518Z,92092.09
2022-09-17T04:17:25.168Z,92086.28
2022-09-17T04:18:56.722Z,92095.63
2022-09-17T04:20:28.421Z,92112.78
2022-09-17T04:22:00.382Z,92125.28
2022-09-17T04:23:32.022Z,92137.38
2022-09-17T04:25:03.643Z,92148.31
2022-09-17T04:26:35.223Z,92151.81
2022-09-17T04:28:06.744Z,92152.25
2022-09-17T04:29:38.289Z,92167.06
2022-09-17T04:31:09.899Z,92167.94
2022-09-17T04:32:41.485Z,92176.91
2022-09-17T04:34:13.150Z,92192.91
2022-09-17T04:35:45.735Z,92194.34
2022-09-17T04:37:17.612Z,92196.25
2022-09-17T04:38:49.397Z,92215.28
2022-09-17T04:40:21.400Z,92223.41
2022-09-17T04:41:53.116Z,92242.09
2022-09-17T04:43:25.226Z,92246.03
2022-09-17T04:44:58.306Z,92242.47
2022-09-17T04:46:30.320Z,92240.47
2022-09-17T04:48:02.281Z,92249.34
2022-09-17T04:49:35.154Z,92250.44
2022-09-17T04:51:06.922Z,92250.81
2022-09-17T04:52:42.416Z,92252.72
2022-09-17T04:54:14.887Z,92256.56
2022-09-17T04:55:46.519Z,92241.75
2022-09-17T04:57:18.215Z,92240.19
2022-09-17T04:58:49.742Z,92238.25
2022-09-17T05:00:23.342Z,92240.56
2022-09-17T05:01:55.441Z,92251.47
2022-09-17T05:03:28.044Z,92249.16
2022-09-17T05:05:00.130Z,92249.53
2022-09-17T05:06:31.844Z,92250.69
2022-09-17T05:08:03.945Z,92251.44
2022-09-17T05:09:35.840Z,92245.56
2022-09-17T05:11:07.628Z,92238.97
2022-09-17T05:12:39.550Z,92239.75
2022-09-17T05:14:11.173Z,92238.59
2022-09-17T05:15:42.803Z,92233.19
2022-09-17T05:17:14.771Z,92224.59
2022-09-17T05:18:46.606Z,92222.66
2022-09-17T05:20:18.450Z,92214.13
2022-09-17T05:21:50.392Z,92221.91
2022-09-17T05:23:22.209Z,92220.25
2022-09-17T05:24:54.000Z,92217.44
2022-09-17T05:26:25.867Z,92219.75
2022-09-17T05:27:57.569Z,92216.22
2022-09-17T05:29:31.326Z,92217.38
2022-09-17T05:31:02.964Z,92202.19
2022-09-17T05:32:35.188Z,92191.28
2022-09-17T05:34:07.773Z,92193.25
2022-09-17T05:35:39.759Z,92200.69
2022-09-17T05:37:11.712Z,92206.59
2022-09-17T05:38:43.365Z,92197.69
2022-09-17T05:40:15.717Z,92207.88
2022-09-17T05:41:47.419Z,92206.38
2022-09-17T05:43:19.055Z,92202.16
2022-09-17T05:44:51.065Z,92198.28
2022-09-17T05:46:24.768Z,92210.78
2022-09-17T05:47:56.863Z,92206.53
2022-09-17T05:49:28.416Z,92212.03
2022-09-17T05:51:00.242Z,92214.41
2022-09-17T05:52:31.825Z,92226.13
2022-09-17T05:54:03.505Z,92211.31
2022-09-17T05:55:38.249Z,92206.28
2022-09-17T05:57:09.866Z,92206.72
2022-09-17T05:58:41.590Z,92202.03
2022-09-17T06:00:13.458Z,92201.28
2022-09-17T06:01:45.296Z,92198.97
2022-09-17T06:03:17.879Z,92204.81
2022-09-17T06:04:49.953Z,92207.53
2022-09-17T06:06:21.766Z,92210.72
2022-09-17T06:07:53.414Z,92208.78
2022-09-17T06:09:25.043Z,92198.66
2022-09-17T06:11:01.550Z,92206.84
2022-09-17T06:12:35.849Z,92207.63
2022-09-17T06:14:07.578Z,92203.69
2022-09-17T06:15:39.311Z,92213.84
2022-09-17T06:17:11.603Z,92213.09
2022-09-17T06:18:43.302Z,92219.72
2022-09-17T06:20:16.476Z,92227.53
2022-09-17T06:21:48.238Z,92232.66
2022-09-17T06:23:19.963Z,92224.81
2022-09-17T06:24:51.760Z,92230.69
2022-09-17T06:26:23.350Z,92226.41
2022-09-17T06:27:54.981Z,92214.75
2022-09-17T06:29:27.114Z,92216.31
2022-09-17T06:31:02.217Z,92215.53
2022-09-17T06:32:34.055Z,92212.47
2022-09-17T06:34:05.899Z,92216.75
2022-09-17T06:35:37.615Z,92209.38
2022-09-17T06:37:11.854Z,92205.50
2022-09-17T06:38:43.487Z,92203.59
2022-09-17T06:40:16.353Z,92204.03
2022-09-17T06:41:48.178Z,92204.81
2022-09-17T06:43:19.984Z,92213.00
2022-09-17T06:44:54.578Z,92218.88
2022-09-17T06:46:26.449Z,92207.53
2022-09-17T06:47:58.272Z,92211.06
2022-09-17T06:49:31.681Z,92210.28
2022-09-17T06:51:07.147Z,92203.59
2022-09-17T06:52:39.122Z,92204.75
2022-09-17T06:54:10.742Z,92203.16
2022-09-17T06:55:42.421Z,92184.38
2022-09-17T06:57:14.087Z,92170.25
2022-09-17T06:58:45.853Z,92158.84
2022-09-17T07:00:17.508Z,92151.31
2022-09-17T07:01:49.469Z,92144.63
2022-09-17T07:03:23.330Z,92130.44
2022-09-17T07:04:55.351Z,92134.25
2022-09-17T07:06:27.266Z,92120.38
2022-09-17T07:09:30.917Z,92125.19
2022-09-17T07:11:02.552Z,92124.22
2022-09-17T07:12:34.198Z,92119.72
2022-09-17T07:14:07.089Z,92129.75
2022-09-17T07:15:38.667Z,92130.75
2022-09-17T07:17:10.684Z,92132.09
2022-09-17T07:18:42.313Z,92124.84
2022-09-17T07:20:13.919Z,92129.13
2022-09-17T07:21:45.516Z,92125.19
2022-09-17T07:23:17.111Z,92112.38
2022-09-17T07:24:48.907Z,92108.91
2022-09-17T07:26:20.430Z,92120.50
2022-09-17T07:27:51.989Z,92111.88
2022-09-17T07:29:26.654Z,92110.22
2022-09-17T07:30:58.399Z,92107.38
2022-09-17T07:32:30.846Z,92121.16
2022-09-17T07:34:02.770Z,92122.00
2022-09-17T07:35:34.317Z,92116.59
2022-09-17T07:37:06.129Z,92119.34
2022-09-17T07:38:38.943Z,92118.53
2022-09-17T07:40:11.103Z,92115.31
2022-09-17T07:41:43.095Z,92107.88
2022-09-17T07:43:15.759Z,92105.91
2022-09-17T07:44:47.409Z,92118.47
2022-09-17T07:46:19.631Z,92124.38
2022-09-17T07:47:51.696Z,92123.56
2022-09-17T07:49:23.599Z,92126.59
2022-09-17T07:50:56.018Z,92120.72
2022-09-17T07:52:28.407Z,92121.94
2022-09-17T07:54:00.585Z,92111.69
2022-09-17T07:55:32.843Z,92114.78
2022-09-17T07:57:04.875Z,92112.34
2022-09-17T07:58:38.190Z,92112.69
2022-09-17T08:00:10.332Z,92113.34
2022-09-17T08:01:43.357Z,92112.09
2022-09-17T08:03:15.147Z,92108.56
2022-09-17T08:04:46.710Z,92101.09
2022-09-17T08:06:22.016Z,92090.09
2022-09-17T08:07:54.434Z,92086.84
2022-09-17T08:09:25.999Z,92089.06
2022-09-17T08:11:00.439Z,92090.41
2022-09-17T08:12:31.961Z,92090.56
2022-09-17T08:14:04.350Z,92099.94
2022-09-17T08:15:36.260Z,92094.38
2022-09-17T08:17:08.607Z,92086.44
2022-09-17T08:18:40.200Z,92085.94
2022-09-17T08:20:12.483Z,92082.19
2022-09-17T08:21:44.274Z,92079.22
2022-09-17T08:23:16.360Z,92078.94
2022-09-17T08:24:48.581Z,92081.88
2022-09-17T08:26:22.916Z,92082.66
2022-09-17T08:27:56.079Z,92095.63
2022-09-17T08:29:30.072Z,92080.94
2022-09-17T08:31:04.964Z,92085.66
2022-09-17T08:32:36.557Z,92087.22
2022-09-17T08:34:09.401Z,92088.06
2022-09-17T08:35:41.006Z,92092.00
2022-09-17T08:37:12.667Z,92092.53
2022-09-17T08:38:44.455Z,92101.69
2022-09-17T08:40:21.159Z,92091.50
2022-09-17T08:41:55.788Z,92093.50
2022-09-17T08:43:27.540Z,92092.41
2022-09-17T08:45:00.777Z,92096.50
2022-09-17T08:46:33.638Z,92090.34
2022-09-17T08:48:05.427Z,92099.66
2022-09-17T08:49:40.576Z,92092.84
2022-09-17T08:51:18.152Z,92104.81
2022-09-17T08:53:03.102Z,92105.63
2022-09-17T08:54:50.598Z,92101.75
2022-09-17T08:56:22.275Z,92101.19
2022-09-17T08:57:53.946Z,92103.13
2022-09-17T08:59:46.275Z,92113.97
2022-09-17T09:01:21.351Z,92122.06
2022-09-17T09:02:56.400Z,92120.63
2022-09-17T09:04:31.732Z,92123.22
2022-09-17T09:06:07.247Z,92132.13
2022-09-17T09:07:53.078Z,92133.88
2022-09-17T09:09:25.991Z,92138.75
2022-09-17T09:10:58.573Z,92138.53
2022-09-17T09:12:31.985Z,92137.06
2022-09-17T09:14:06.691Z,92142.31
2022-09-17T09:15:41.551Z,92163.22
2022-09-17T09:17:13.669Z,92159.03
2022-09-17T09:18:45.387Z,92169.31
2022-09-17T09:20:18.014Z,92179.19
2022-09-17T09:22:08.675Z,92192.56
2022-09-17T09:23:54.628Z,92203.22
2022-09-17T09:25:29.644Z,92214.16
2022-09-17T09:27:04.193Z,92220.41
2022-09-17T09:28:48.998Z,92215.72
2022-09-17T09:30:23.856Z,92229.38
2022-09-17T09:32:20.497Z,92247.75
2022-09-17T09:41:37.784Z,92290.00
2022-09-17T09:43:12.627Z,92282.59
2022-09-17T09:44:44.436Z,92286.88
2022-09-17T09:46:16.220Z,92289.19
2022-09-17T09:47:51.490Z,92283.75
2022-09-17T09:49:42.632Z,92268.50
2022-09-17T09:51:36.958Z,92268.91
2022-09-17T09:53:40.938Z,92264.22
2022-09-17T09:55:38.700Z,92245.06
2022-09-17T09:57:13.691Z,92242.72
2022-09-17T09:58:45.411Z,92224.34
2022-09-17T10:00:26.999Z,92218.50
2022-09-17T10:01:58.741Z,92215.75
2022-09-17T10:03:32.476Z,92225.50
2022-09-17T10:05:10.114Z,92231.78
2022-09-17T10:06:41.808Z,92235.28
2022-09-17T10:08:13.913Z,92232.94
2022-09-17T10:09:45.803Z,92223.56
2022-09-17T10:11:21.680Z,92223.97
2022-09-17T10:13:05.189Z,92214.19
2022-09-17T10:14:37.353Z,92211.41
2022-09-17T10:16:19.017Z,92196.16
2022-09-17T10:17:51.310Z,92208.59
2022-09-17T10:19:25.694Z,92223.78
2022-09-17T10:21:00.467Z,92227.69
2022-09-17T10:22:32.984Z,92232.72
2022-09-17T10:24:05.415Z,92227.22
2022-09-17T10:25:41.654Z,92219.34
2022-09-17T10:27:17.667Z,92194.34
2022-09-17T10:28:53.251Z,92174.81
2022-09-17T10:30:26.619Z,92166.19
2022-09-17T10:31:58.778Z,92144.75
2022-09-17T10:33:31.424Z,92135.03
2022-09-17T10:35:06.155Z,92135.47
2022-09-17T10:36:42.341Z,92136.63
2022-09-17T10:38:32.507Z,92127.63
2022-09-17T10:40:16.001Z,92140.09
2022-09-17T10:42:04.406Z,92158.78
2022-09-17T10:43:36.312Z,92143.22
2022-09-17T10:45:16.662Z,92149.84
2022-09-17T10:46:54.290Z,92148.66
2022-09-17T10:48:29.090Z,92163.00
2022-09-17T10:50:08.383Z,92161.84
2022-09-17T10:51:40.290Z,92164.59
2022-09-17T10:53:15.541Z,92183.34
2022-09-17T10:54:56.363Z,92173.66
2022-09-17T10:56:36.408Z,92175.59
2022-09-17T10:58:08.032Z,92169.78
2022-09-17T10:59:59.234Z,92171.34
2022-09-17T11:01:38.725Z,92177.97
2022-09-17T11:03:32.399Z,92177.19
2022-09-17T11:05:04.194Z,92185.00
2022-09-17T11:06:38.942Z,92181.09
2022-09-17T11:08:13.037Z,92183.88
2022-09-17T11:10:00.018Z,92178.84
2022-09-17T11:11:50.344Z,92178.84
2022-09-17T11:13:24.995Z,92185.09
2022-09-17T11:15:02.047Z,92180.00
2022-09-17T11:16:36.749Z,92177.59
2022-09-17T11:18:24.734Z,92181.09
2022-09-17T11:20:02.680Z,92177.16
2022-09-17T11:21:34.393Z,92179.88
2022-09-17T11:23:06.049Z,92188.88
2022-09-17T11:24:49.031Z,92181.88
2022-09-17T11:26:39.307Z,92179.94
2022-09-17T11:28:13.949Z,92183.44
2022-09-17T11:29:45.536Z,92173.69
2022-09-17T11:31:35.884Z,92177.19
2022-09-17T11:33:11.643Z,92173.69
2022-09-17T11:34:45.975Z,92171.34
2022-09-17T11:36:24.784Z,92160.44
2022-09-17T11:38:02.420Z,92153.41
2022-09-17T11:39:36.844Z,92169.41
2022-09-17T11:41:10.768Z,92153.00
2022-09-17T11:42:47.961Z,92151.06
2022-09-17T11:44:25.298Z,92152.63
2022-09-17T11:45:57.000Z,92137.44
2022-09-17T11:47:35.317Z,92140.94
2022-09-17T11:49:12.909Z,92137.44
2022-09-17T11:50:56.824Z,92136.69
2022-09-17T11:52:32.195Z,92146.03
2022-09-17T11:54:22.498Z,92145.63
2022-09-17T11:55:59.783Z,92135.13
2022-09-17T11:57:35.440Z,92129.66
2022-09-17T11:59:15.910Z,92132.34
2022-09-17T12:00:50.459Z,92121.81
2022-09-17T12:02:27.114Z,92122.97
2022-09-17T12:03:59.680Z,92122.19
2022-09-17T12:05:31.405Z,92118.72
2022-09-17T12:07:11.331Z,92115.56
2022-09-17T12:08:46.242Z,92115.56
2022-09-17T12:10:32.851Z,92117.91
2022-09-17T12:12:06.753Z,92111.31
2022-09-17T12:13:45.970Z,92113.63
2022-09-17T12:15:25.641Z,92123.75
2022-09-17T12:17:00.644Z,92129.59
2022-09-17T12:18:51.432Z,92136.19
2022-09-17T12:20:25.534Z,92131.91
2022-09-17T12:21:58.655Z,92130.34
2022-09-17T12:23:39.779Z,92136.97
2022-09-17T12:25:14.016Z,92138.50
2022-09-17T12:26:48.859Z,92138.88
2022-09-17T12:28:22.034Z,92135.75
2022-09-17T12:30:01.431Z,92132.63
2022-09-17T12:31:46.241Z,92120.94
2022-09-17T12:33:46.122Z,92103.75
2022-09-17T12:35:52.800Z,92110.66
2022-09-17T12:37:27.943Z,92109.09
2022-09-17T12:39:03.427Z,92089.25
2022-09-17T12:40:44.391Z,92102.47
2022-09-17T12:42:20.177Z,92096.59
2022-09-17T12:43:57.825Z,92097.38
2022-09-17T12:45:49.940Z,92101.69
2022-09-17T12:47:40.726Z,92095.47
2022-09-17T12:49:21.453Z,92085.72
2022-09-17T12:51:12.374Z,92091.59
2022-09-17T12:52:52.968Z,92083.44
2022-09-17T12:54:30.851Z,92074.94
2022-09-17T12:56:04.161Z,92082.72
2022-09-17T12:57:57.999Z,92077.69
2022-09-17T12:59:30.689Z,92078.88
2022-09-17T13:01:04.682Z,92069.13
2022-09-17T13:02:37.259Z,92071.09
2022-09-17T13:04:16.404Z,92060.59
2022-09-17T13:06:11.269Z,92061.75
2022-09-17T13:08:01.879Z,92071.13
2022-09-17T13:09:51.933Z,92072.66
2022-09-17T13:11:24.452Z,92063.28
2022-09-17T13:13:07.417Z,92081.22
2022-09-17T13:14:48.684Z,92070.69
2022-09-17T13:16:24.741Z,92059.78
2022-09-17T13:18:23.014Z,92078.06
2022-09-17T13:20:02.499Z,92071.84
2022-09-17T13:21:34.436Z,92074.19
2022-09-17T13:23:06.612Z,92058.59
2022-09-17T13:24:38.864Z,92069.50
2022-09-17T13:26:20.252Z,92064.84
2022-09-17T13:27:55.400Z,92057.44
2022-09-17T13:29:47.710Z,92069.13
2022-09-17T13:31:22.467Z,92055.50
2022-09-17T13:32:57.906Z,92039.91
2022-09-17T13:34:32.309Z,92024.72
2022-09-17T13:36:05.808Z,92022.75
2022-09-17T13:37:41.692Z,92002.91
2022-09-17T13:39:34.015Z,91980.72
2022-09-17T13:41:18.655Z,91979.53
2022-09-17T13:43:09.546Z,91958.50
2022-09-17T13:45:19.321Z,91957.28
2022-09-17T13:46:53.216Z,91942.84
2022-09-17T13:48:27.335Z,91936.63
2022-09-17T13:50:00.092Z,91949.84
2022-09-17T13:51:35.190Z,91961.56
2022-09-17T13:53:14.843Z,91963.50
2022-09-17T13:54:46.636Z,91964.25
2022-09-17T13:56:32.172Z,91954.91
2022-09-17T13:58:04.847Z,91954.91
2022-09-17T13:59:39.154Z,91953.75
2022-09-17T14:01:13.774Z,91970.50
2022-09-17T14:02:50.350Z,91959.97
2022-09-17T14:04:42.075Z,91969.31
2022-09-17T14:06:15.187Z,91940.13
2022-09-17T14:07:47.795Z,91943.22
2022-09-17T14:09:40.003Z,91945.47
2022-09-17T14:11:33.810Z,91940.00
2022-09-17T14:13:24.966Z,91947.78
2022-09-17T14:14:56.996Z,91952.47
2022-09-17T14:16:28.681Z,91954.00
2022-09-17T14:18:01.244Z,91949.69
2022-09-17T14:19:49.033Z,91951.63
2022-09-17T14:21:27.473Z,91962.50
2022-09-17T14:23:00.402Z,91967.16
2022-09-17T14:24:47.546Z,91963.25
2022-09-17T14:26:25.397Z,91945.38
2022-09-17T14:28:05.156Z,91933.66
2022-09-17T14:29:56.289Z,91921.97
2022-09-17T14:31:32.715Z,91900.63
2022-09-17T14:33:11.378Z,91890.88
2022-09-17T14:34:43.922Z,91889.72
2022-09-17T14:36:17.197Z,91900.97
2022-09-17T14:38:07.306Z,91924.34
2022-09-17T14:39:41.832Z,91927.44
2022-09-17T14:41:14.182Z,91932.06
2022-09-17T14:42:46.780Z,91919.63
2022-09-17T14:44:19.809Z,91899.41
2022-09-17T14:45:52.443Z,91900.97
2022-09-17T14:47:24.028Z,91896.66
2022-09-17T14:48:56.696Z,91885.78
2022-09-17T14:50:29.480Z,91874.50
2022-09-17T14:52:05.108Z,91879.13
2022-09-17T14:53:36.775Z,91890.78
2022-09-17T14:55:20.730Z,91897.78
2022-09-17T14:56:53.519Z,91889.59
2022-09-17T14:58:26.302Z,91891.50
2022-09-17T14:59:57.905Z,91881.41
2022-09-17T15:01:31.642Z,91889.16
2022-09-17T15:03:03.370Z,91898.13
2022-09-17T15:04:35.046Z,91897.34
2022-09-17T15:06:13.348Z,91894.63
2022-09-17T15:07:45.519Z,91887.63
2022-09-17T15:09:17.736Z,91888.78
2022-09-17T15:10:52.618Z,91896.16
2022-09-17T15:12:25.379Z,91900.09
2022-09-17T15:13:57.704Z,91906.28
2022-09-17T15:15:29.425Z,91908.25
2022-09-17T15:17:02.112Z,91903.97
2022-09-17T15:18:38.658Z,91898.91
2022-09-17T15:20:11.542Z,91909.41
2022-09-17T15:21:43.899Z,91916.78
2022-09-17T15:23:17.697Z,91923.44
2022-09-17T15:24:50.562Z,91929.69
2022-09-17T15:26:23.540Z,91937.16
2022-09-17T15:27:56.313Z,91968.63
2022-09-17T15:29:28.809Z,91945.28
2022-09-17T15:31:00.535Z,91943.31
2022-09-17T15:32:35.009Z,91934.75
2022-09-17T15:34:12.969Z,91909.81
2022-09-17T15:35:45.060Z,91901.66
2022-09-17T15:37:20.852Z,91918.78
2022-09-17T15:38:53.807Z,91890.41
2022-09-17T15:40:32.540Z,91898.91
2022-09-17T15:42:04.995Z,91897.75
2022-09-17T15:43:38.159Z,91892.31
2022-09-17T15:45:23.552Z,91896.56
2022-09-17T15:46:57.852Z,91897.72
2022-09-17T15:48:37.615Z,91901.97
2022-09-17T15:50:16.787Z,91888.28
2022-09-17T15:51:50.436Z,91885.16
2022-09-17T15:53:23.508Z,91887.53
2022-09-17T15:54:55.248Z,91893.78
2022-09-17T15:56:28.443Z,91905.06
2022-09-17T15:58:00.228Z,91900.00
2022-09-17T15:59:32.148Z,91907.44
2022-09-17T16:01:15.749Z,91909.81
2022-09-17T16:02:47.590Z,91898.94
2022-09-17T16:04:22.518Z,91880.66
2022-09-17T16:05:56.901Z,91867.84
2022-09-17T16:07:30.423Z,91875.22
2022-09-17T16:09:02.915Z,91874.09
2022-09-17T16:10:34.819Z,91871.78
2022-09-17T16:12:08.057Z,91855.06
2022-09-17T16:13:40.218Z,91860.94
2022-09-17T16:15:15.083Z,91848.84
2022-09-17T16:16:49.847Z,91846.50
2022-09-17T16:18:21.704Z,91832.84
2022-09-17T16:19:56.110Z,91828.94
2022-09-17T16:21:28.596Z,91830.88
2022-09-17T16:23:01.031Z,91812.63
2022-09-17T16:24:34.898Z,91805.63
2022-09-17T16:26:07.506Z,91800.22
2022-09-17T16:27:49.409Z,91787.38
2022-09-17T16:29:22.287Z,91770.66
2022-09-17T16:31:17.244Z,91766.00
2022-09-17T16:32:49.102Z,91762.47
2022-09-17T16:34:20.843Z,91764.41
2022-09-17T16:35:52.676Z,91769.47
2022-09-17T16:37:24.433Z,91771.41
2022-09-17T16:38:57.133Z,91767.53
2022-09-17T16:40:29.131Z,91767.53
2022-09-17T16:42:00.998Z,91770.25
2022-09-17T16:43:34.024Z,91787.00
2022-09-17T16:45:07.068Z,91791.69
2022-09-17T16:46:38.980Z,91782.31
2022-09-17T16:48:12.174Z,91788.19
2022-09-17T16:49:44.384Z,91775.72
2022-09-17T16:51:16.605Z,91787.38
2022-09-17T16:52:48.714Z,91788.13
2022-09-17T16:54:20.683Z,91790.44
2022-09-17T16:55:52.407Z,91799.78
2022-09-17T16:57:27.648Z,91795.47
2022-09-17T16:58:59.307Z,91803.28
2022-09-17T17:00:44.632Z,91820.78
2022-09-17T17:02:27.844Z,91816.91
2022-09-17T17:04:11.074Z,91827.03
2022-09-17T17:05:44.030Z,91829.00
2022-09-17T17:09:06.766Z,91846.88
2022-09-17T17:10:52.354Z,91844.16
2022-09-17T17:12:28.287Z,91839.84
2022-09-17T17:14:08.624Z,91837.88
2022-09-17T17:16:02.632Z,91840.25
2022-09-17T17:17:39.327Z,91831.25
2022-09-17T17:19:13.552Z,91816.06
2022-09-17T17:20:45.501Z,91807.50
2022-09-17T17:22:17.446Z,91808.66
2022-09-17T17:23:52.287Z,91812.19
2022-09-17T17:25:26.513Z,91823.50
2022-09-17T17:26:58.206Z,91840.25
2022-09-17T17:28:38.229Z,91848.78
2022-09-17T17:30:10.498Z,91850.00
2022-09-17T17:31:42.351Z,91850.00
2022-09-17T17:33:14.109Z,91855.84
2022-09-17T17:34:45.950Z,91851.19
2022-09-17T17:36:20.463Z,91837.94
2022-09-17T17:37:58.071Z,91832.47
2022-09-17T17:39:30.245Z,91848.81
2022-09-17T17:41:03.074Z,91863.63
2022-09-17T17:42:38.545Z,91864.78
2022-09-17T17:44:12.892Z,91864.78
2022-09-17T17:45:49.558Z,91869.06
2022-09-17T17:47:21.398Z,91869.06
2022-09-17T17:48:53.500Z,91879.19
2022-09-17T17:50:25.575Z,91888.13
2022-09-17T17:51:57.421Z,91880.75
2022-09-17T17:53:29.667Z,91887.75
2022-09-17T17:55:01.414Z,91880.78
2022-09-17T17:56:33.685Z,91873.38
2022-09-17T17:58:05.574Z,91879.22
2022-09-17T17:59:39.202Z,91876.50
2022-09-17T18:01:15.643Z,91864.81
2022-09-17T18:02:48.033Z,91859.38
2022-09-17T18:04:19.958Z,91863.63
2022-09-17T18:05:56.722Z,91860.53
2022-09-17T18:07:30.978Z,91871.81
2022-09-17T18:09:03.638Z,91874.91
2022-09-17T18:10:35.356Z,91874.56
2022-09-17T18:12:07.486Z,91884.28
2022-09-17T18:13:39.481Z,91885.81
2022-09-17T18:15:11.879Z,91895.19
2022-09-17T18:16:44.450Z,91890.09
2022-09-17T18:18:16.514Z,91883.09
2022-09-17T18:19:49.418Z,91884.63
2022-09-17T18:21:22.354Z,91875.28
2022-09-17T18:22:54.565Z,91871.78
2022-09-17T18:24:26.691Z,91865.13
2022-09-17T18:25:59.156Z,91867.06
2022-09-17T18:27:31.583Z,91877.56
2022-09-17T18:29:07.798Z,91874.03
2022-09-17T18:30:41.253Z,91868.22
2022-09-17T18:32:13.307Z,91874.44
2022-09-17T18:33:45.314Z,91863.19
2022-09-17T18:35:20.169Z,91872.16
2022-09-17T18:36:52.552Z,91863.19
2022-09-17T18:38:24.878Z,91866.31
2022-09-17T18:39:58.805Z,91870.19
2022-09-17T18:41:31.994Z,91872.88
2022-09-17T18:43:04.380Z,91872.84
2022-09-17T18:44:36.682Z,91874.78
2022-09-17T18:46:09.187Z,91880.59
2022-09-17T18:47:40.887Z,91886.00
2022-09-17T18:49:12.622Z,91876.69
2022-09-17T18:50:45.097Z,91882.13
2022-09-17T18:52:17.206Z,91882.16
2022-09-17T18:53:51.629Z,91884.88
2022-09-17T18:55:24.173Z,91891.47
2022-09-17T18:56:56.386Z,91890.31